KFME/FME METAR and TAF weather

Enter ICAO airport designator
Station Type Date Time Source
KFME METAR 2019/07/20 05:03 UTC NOAA

KFME 200503Z AUTO 00000KT 4SM CLR 24/23 A2992 RMK AO1


Station Type Date Time Source
KFME Decoded METAR 2019/07/20 05:03 UTC NOAA

Fort Meade / Tipton, MD, United States (KFME) 39-05N 076-46W
Jul 20, 2019 - 01:03 AM EDT / 2019.07.20 0503 UTC
Wind: Calm:0
Visibility: 4 mile(s):0
Sky conditions: clear
Temperature: 75 F (24 C)
Dew Point: 73 F (23 C)
Relative Humidity: 94%
Pressure (altimeter): 29.92 in. Hg (1013 hPa)
ob: KFME 200503Z AUTO 00000KT 4SM CLR 24/23 A2992 RMK AO1
cycle: 5

Station Type Date Time Source
KFME TAF UTC NOAA

Error!

Example: see airport list